Time;durP1;ratioP1;P1;durP2;ratioP2;P2;SDS_P1;SDS_P2;PMS_P1;PMS_P2;Temp;Humidity;BMP_temperature;BMP_pressure;BME280_temperature;BME280_humidity;BME280_pressure;Samples;Min_cycle;Max_cycle;Signal;HPM_P1;HPM_P2
2022/09/29 04:14:10;;;;;;;0.93;0.85;;;;;;;13.72;92.85;100207.81;5063926;28;20401;-83
2022/09/29 04:16:36;;;;;;;0.30;0.30;;;;;;;13.86;93.07;100215.47;5049634;28;20044;-82
2022/09/29 04:19:01;;;;;;;0.30;0.30;;;;;;;14.00;91.54;100222.34;5065864;28;20025;-88
2022/09/29 04:21:27;;;;;;;0.20;0.20;;;;;;;14.09;90.34;100216.50;5048398;28;20033;-90
2022/09/29 04:23:52;;;;;;;0.70;0.70;;;;;;;14.06;88.97;100196.75;5049478;28;20124;-85
2022/09/29 04:26:19;;;;;;;0.38;0.30;;;;;;;14.39;87.49;100215.28;5065154;28;20028;-86
2022/09/29 04:28:45;;;;;;;0.20;0.20;;;;;;;14.52;87.35;100216.91;5049512;28;20029;-84
2022/09/29 04:31:10;;;;;;;0.28;0.28;;;;;;;14.59;86.56;100225.94;5054140;28;20457;-94
2022/09/29 04:33:38;;;;;;;0.20;0.20;;;;;;;14.71;85.08;100215.59;5067340;28;20481;-89
2022/09/29 04:36:03;;;;;;;0.40;0.40;;;;;;;14.80;84.53;100217.53;5050262;28;20032;-91
2022/09/29 04:38:30;;;;;;;0.63;0.63;;;;;;;14.72;84.48;100204.22;5049638;28;20036;-89
2022/09/29 04:40:55;;;;;;;0.70;0.50;;;;;;;14.78;83.59;100216.81;5041194;28;20054;-92
2022/09/29 04:43:21;;;;;;;0.40;0.40;;;;;;;14.71;83.13;100194.75;4986820;28;20574;-81
2022/09/29 04:45:46;;;;;;;0.45;0.45;;;;;;;14.96;83.17;100220.69;4986593;28;20097;-86
2022/09/29 04:48:12;;;;;;;0.70;0.70;;;;;;;14.97;82.89;100222.34;4987115;28;20037;-88
2022/09/29 04:50:37;;;;;;;1.40;1.30;;;;;;;15.04;82.46;100223.53;4976713;28;20042;-88
2022/09/29 04:53:02;;;;;;;0.40;0.40;;;;;;;15.04;82.01;100226.13;4986080;28;20777;-84
2022/09/29 04:55:28;;;;;;;0.20;0.20;;;;;;;15.02;82.43;100216.78;4973754;28;20033;-83
2022/09/29 04:57:54;;;;;;;0.35;0.35;;;;;;;14.83;83.54;100201.66;5001588;28;20034;-92
2022/09/29 05:00:20;;;;;;;0.40;0.40;;;;;;;15.10;82.20;100238.72;5006781;28;20034;-83
2022/09/29 05:02:45;;;;;;;0.55;0.55;;;;;;;15.03;82.43;100201.03;4985371;28;20031;-82
2022/09/29 05:05:11;;;;;;;0.85;0.85;;;;;;;15.06;82.32;100182.59;5002294;28;20030;-87
2022/09/29 05:07:37;;;;;;;0.55;0.55;;;;;;;15.26;82.36;100230.59;5004838;28;20488;-84
2022/09/29 05:10:06;;;;;;;0.60;0.60;;;;;;;15.34;82.30;100235.22;4985735;28;20042;-79
2022/09/29 05:12:32;;;;;;;1.75;1.42;;;;;;;15.35;82.56;100229.91;5003040;28;20515;-90
2022/09/29 05:14:57;;;;;;;0.82;0.82;;;;;;;15.32;82.77;100221.47;4985196;28;20061;-84
2022/09/29 05:17:23;;;;;;;0.30;0.30;;;;;;;15.29;82.99;100224.31;4986021;28;20030;-89
2022/09/29 05:19:48;;;;;;;0.40;0.40;;;;;;;15.38;83.24;100234.06;5003735;28;20057;-84
2022/09/29 05:22:14;;;;;;;0.30;0.30;;;;;;;15.53;85.00;100238.09;4984939;28;20105;-83
2022/09/29 05:24:39;;;;;;;0.30;0.30;;;;;;;15.36;83.39;100228.97;4977480;28;20038;-78
2022/09/29 05:27:05;;;;;;;0.55;0.40;;;;;;;15.47;83.77;100235.97;4990817;28;20026;-88
2022/09/29 05:29:30;;;;;;;0.85;0.82;;;;;;;15.47;83.52;100212.53;4974085;28;20038;-87
2022/09/29 05:31:56;;;;;;;0.60;0.60;;;;;;;15.64;83.10;100239.97;4989998;28;20026;-88
2022/09/29 05:34:21;;;;;;;0.20;0.20;;;;;;;15.77;82.54;100240.69;4990758;28;20105;-84
2022/09/29 05:36:47;;;;;;;0.85;0.82;;;;;;;15.77;83.47;100238.91;4970504;28;20042;-86
2022/09/29 05:39:12;;;;;;;2.13;2.00;;;;;;;15.88;82.89;100247.66;4962097;28;20403;-86
2022/09/29 05:41:38;;;;;;;2.30;1.02;;;;;;;15.86;83.32;100239.16;4971164;28;20039;-84
2022/09/29 05:44:03;;;;;;;1.50;1.40;;;;;;;15.99;83.43;100255.50;4953119;28;20061;-79
2022/09/29 05:46:29;;;;;;;1.30;0.85;;;;;;;16.00;83.05;100259.75;4972727;28;20507;-88
2022/09/29 05:48:54;;;;;;;1.38;1.27;;;;;;;15.96;81.40;100221.81;4974781;28;20019;-91
2022/09/29 05:51:22;;;;;;;1.30;1.20;;;;;;;16.07;81.58;100260.97;4972962;28;20117;-89
2022/09/29 05:53:47;;;;;;;0.40;0.40;;;;;;;16.06;81.73;100259.31;4989259;28;20559;-78
2022/09/29 05:56:18;;;;;;;1.15;0.90;;;;;;;16.11;81.05;100264.97;4970428;28;20113;-79
2022/09/29 05:58:43;;;;;;;1.13;1.02;;;;;;;16.06;80.78;100267.13;4972690;28;20164;-80
2022/09/29 06:01:20;;;;;;;1.02;0.88;;;;;;;16.09;80.24;100274.72;4968802;28;20061;-78
2022/09/29 06:03:46;;;;;;;1.13;1.05;;;;;;;16.21;81.00;100294.63;4964870;28;20131;-83
2022/09/29 06:06:15;;;;;;;0.80;0.80;;;;;;;16.15;80.88;100307.34;4976180;28;20034;-83
2022/09/29 06:08:41;;;;;;;0.70;0.70;;;;;;;16.10;81.06;100310.28;4973909;28;20046;-81
2022/09/29 06:11:16;;;;;;;0.63;0.63;;;;;;;16.05;81.75;100325.50;4990177;28;20034;-85
2022/09/29 06:13:46;;;;;;;0.60;0.60;;;;;;;15.92;82.85;100312.53;4968808;28;20562;-82
2022/09/29 06:16:12;;;;;;;0.95;0.95;;;;;;;15.94;83.47;100315.88;4970345;28;20038;-86
2022/09/29 06:18:38;;;;;;;3.58;0.98;;;;;;;15.95;84.30;100304.47;4989895;28;20026;-88
2022/09/29 06:21:14;;;;;;;0.30;0.30;;;;;;;15.97;84.92;100306.97;4954787;28;20027;-87
2022/09/29 06:23:39;;;;;;;0.38;0.38;;;;;;;15.94;85.23;100299.38;4969028;28;20415;-93
2022/09/29 06:26:07;;;;;;;0.32;0.32;;;;;;;15.96;86.48;100293.09;4972835;28;20117;-91
2022/09/29 06:28:33;;;;;;;0.82;0.82;;;;;;;15.95;87.12;100275.78;4966377;28;20038;-90
2022/09/29 06:30:59;;;;;;;1.42;1.00;;;;;;;15.90;88.04;100267.47;4991108;28;20088;-84
2022/09/29 06:33:28;;;;;;;0.40;0.40;;;;;;;16.05;87.79;100281.13;4984768;28;20393;-88
2022/09/29 06:38:38;;;;;;;0.98;0.85;;;;;;;16.09;87.99;100286.94;4975088;28;20037;-95
2022/09/29 06:41:04;;;;;;;0.82;0.82;;;;;;;16.17;89.27;100279.34;4975165;28;20058;-85
2022/09/29 06:43:29;;;;;;;0.80;0.80;;;;;;;16.37;87.58;100285.63;4994277;28;20111;-88
2022/09/29 06:45:55;;;;;;;0.30;0.25;;;;;;;16.33;88.01;100291.09;5009842;28;20022;-87
2022/09/29 06:48:20;;;;;;;0.20;0.20;;;;;;;16.28;87.74;100274.94;5010199;28;20072;-89
2022/09/29 06:50:47;;;;;;;0.60;0.60;;;;;;;16.56;86.31;100299.72;4993364;28;20037;-87
2022/09/29 06:53:13;;;;;;;1.33;1.23;;;;;;;16.48;85.84;100278.59;5025717;28;20503;-87
2022/09/29 06:55:38;;;;;;;0.82;0.82;;;;;;;16.62;87.11;100295.81;4993231;28;20487;-94
2022/09/29 06:58:04;;;;;;;1.00;0.93;;;;;;;16.72;87.10;100324.66;4994114;28;20044;-83
2022/09/29 07:00:30;;;;;;;1.33;1.23;;;;;;;16.62;86.95;100314.09;5010210;28;20065;-92
2022/09/29 07:02:55;;;;;;;1.55;1.42;;;;;;;16.67;87.28;100330.22;4994236;28;20026;-89
2022/09/29 07:05:21;;;;;;;2.17;1.98;;;;;;;16.78;87.68;100338.06;4993575;28;20034;-94
2022/09/29 07:07:49;;;;;;;1.33;1.23;;;;;;;16.83;86.44;100340.31;4993279;28;20025;-89
2022/09/29 07:10:15;;;;;;;1.67;1.58;;;;;;;16.89;86.14;100340.63;5010952;28;20030;-89
2022/09/29 07:12:43;;;;;;;1.30;1.20;;;;;;;16.95;85.52;100355.00;5008922;28;20057;-88
2022/09/29 07:15:09;;;;;;;0.57;0.57;;;;;;;16.89;85.57;100351.09;5002265;28;20026;-85
2022/09/29 07:17:34;;;;;;;0.70;0.70;;;;;;;16.79;86.08;100349.31;4999677;28;20084;-80
2022/09/29 07:20:00;;;;;;;1.13;1.02;;;;;;;16.77;86.43;100372.97;5009125;28;20033;-79
2022/09/29 07:22:25;;;;;;;1.00;0.77;;;;;;;16.70;86.09;100335.22;5008428;28;20450;-80
2022/09/29 07:24:54;;;;;;;0.47;0.47;;;;;;;16.90;86.10;100376.25;5011830;28;20030;-92
2022/09/29 07:27:22;;;;;;;0.30;0.30;;;;;;;16.98;86.09;100374.81;5010229;28;20107;-88
2022/09/29 07:29:49;;;;;;;0.60;0.60;;;;;;;16.98;85.56;100383.50;5011470;28;20042;-95
2022/09/29 07:32:17;;;;;;;0.22;0.22;;;;;;;17.10;85.25;100399.97;4981601;28;20029;-95
2022/09/29 07:34:43;;;;;;;0.63;0.55;;;;;;;16.97;86.49;100399.31;4985375;28;20049;-91
2022/09/29 07:37:09;;;;;;;0.30;0.30;;;;;;;16.91;86.05;100385.78;4993740;28;20505;-87
2022/09/29 07:39:34;;;;;;;0.75;0.75;;;;;;;16.92;86.27;100400.50;4992766;28;20030;-88
2022/09/29 07:42:00;;;;;;;2.35;1.38;;;;;;;16.86;87.43;100406.22;4993462;28;20060;-89
2022/09/29 07:44:26;;;;;;;0.80;0.80;;;;;;;17.01;87.95;100411.16;4992753;28;20030;-83
2022/09/29 07:46:51;;;;;;;0.55;0.55;;;;;;;16.90;88.82;100406.78;5024852;28;20088;-79
2022/09/29 07:49:17;;;;;;;1.85;1.30;;;;;;;17.02;88.96;100397.16;5009717;28;20443;-80
2022/09/29 07:51:43;;;;;;;0.40;0.40;;;;;;;17.01;89.32;100412.03;5024769;28;20404;-80
2022/09/29 07:54:08;;;;;;;0.85;0.85;;;;;;;17.08;89.39;100417.56;5008539;28;20044;-91
2022/09/29 07:56:34;;;;;;;1.17;1.08;;;;;;;17.15;89.79;100410.91;5008687;28;20102;-86
2022/09/29 07:59:01;;;;;;;0.45;0.45;;;;;;;17.19;90.05;100414.94;5025038;28;20451;-87
2022/09/29 08:01:26;;;;;;;0.60;0.60;;;;;;;17.20;90.03;100411.38;4992609;28;20471;-93
2022/09/29 08:03:53;;;;;;;0.63;0.50;;;;;;;17.24;90.03;100404.94;4996688;28;20068;-87
2022/09/29 08:06:19;;;;;;;0.95;0.60;;;;;;;17.25;88.73;100388.31;5010186;28;20415;-88
2022/09/29 08:08:44;;;;;;;1.40;1.30;;;;;;;17.42;88.16;100393.00;4994041;28;20041;-88
2022/09/29 08:11:12;;;;;;;1.08;0.98;;;;;;;17.48;88.33;100402.13;5009051;28;20483;-88
2022/09/29 08:13:37;;;;;;;1.00;0.85;;;;;;;17.52;88.57;100415.81;4980567;28;20057;-89
2022/09/29 08:16:05;;;;;;;0.95;0.85;;;;;;;17.46;89.25;100406.66;5006520;28;20111;-87
2022/09/29 08:18:30;;;;;;;0.57;0.57;;;;;;;17.52;87.86;100400.94;5010563;28;20144;-88
2022/09/29 08:20:56;;;;;;;0.95;0.93;;;;;;;17.39;88.19;100374.94;5011460;28;20045;-88
2022/09/29 08:23:22;;;;;;;0.47;0.47;;;;;;;17.58;88.65;100404.81;5028285;28;20033;-90
2022/09/29 08:25:48;;;;;;;0.80;0.80;;;;;;;17.48;88.85;100381.22;4998894;28;20088;-84
2022/09/29 08:28:13;;;;;;;1.08;0.98;;;;;;;17.37;89.97;100366.41;4992515;28;20080;-82
2022/09/29 08:30:39;;;;;;;1.40;1.25;;;;;;;17.56;89.64;100393.66;5027185;28;20038;-91
2022/09/29 08:33:13;;;;;;;0.47;0.47;;;;;;;17.63;89.25;100392.22;4996726;28;20116;-91
2022/09/29 08:35:40;;;;;;;0.80;0.80;;;;;;;17.57;88.60;100367.38;4984519;28;20027;-91
2022/09/29 08:38:05;;;;;;;0.77;0.77;;;;;;;17.76;87.05;100395.50;5012516;28;20438;-85
2022/09/29 08:40:30;;;;;;;0.85;0.82;;;;;;;17.72;86.95;100394.13;5024997;28;20037;-84
2022/09/29 08:42:56;;;;;;;0.85;0.85;;;;;;;17.72;87.28;100376.63;4972277;28;20042;-85
2022/09/29 08:45:32;;;;;;;0.85;0.70;;;;;;;17.62;87.19;100360.00;5009726;28;20564;-91
2022/09/29 08:48:22;;;;;;;0.45;0.45;;;;;;;17.92;85.45;100388.06;4992044;28;20030;-87
2022/09/29 08:51:04;;;;;;;0.60;0.60;;;;;;;17.83;85.61;100394.06;5007676;28;20034;-86
2022/09/29 08:53:32;;;;;;;1.35;1.17;;;;;;;17.83;85.83;100380.97;4974918;28;20463;-88
2022/09/29 08:56:04;;;;;;;0.32;0.32;;;;;;;17.94;86.43;100391.38;4972348;28;20027;-90
2022/09/29 08:58:30;;;;;;;0.77;0.77;;;;;;;17.89;87.20;100393.53;4988347;28;20109;-88
2022/09/29 09:01:26;;;;;;;0.50;0.50;;;;;;;17.92;87.63;100390.69;4975250;28;20038;-90
2022/09/29 09:04:01;;;;;;;0.30;0.30;;;;;;;17.92;88.33;100393.28;4991816;28;20045;-86
2022/09/29 09:06:40;;;;;;;0.95;0.95;;;;;;;17.99;88.39;100394.44;4991345;28;20031;-89
2022/09/29 09:09:37;;;;;;;0.30;0.30;;;;;;;18.03;87.65;100385.38;5007039;28;20420;-89
2022/09/29 09:12:20;;;;;;;0.75;0.75;;;;;;;17.92;85.64;100361.88;4994436;28;20051;-87
2022/09/29 09:15:09;;;;;;;0.57;0.57;;;;;;;18.03;86.02;100374.91;4999058;28;20822;-86
2022/09/29 09:17:44;;;;;;;0.65;0.65;;;;;;;18.09;85.88;100388.41;4994769;28;20344;-92
2022/09/29 09:20:19;;;;;;;0.73;0.73;;;;;;;18.14;86.45;100394.09;5002727;28;20029;-85
2022/09/29 09:22:53;;;;;;;0.57;0.57;;;;;;;18.08;86.26;100392.81;4991754;28;20042;-87
2022/09/29 09:25:40;;;;;;;0.73;0.73;;;;;;;18.13;85.26;100379.38;4977669;28;20613;-84
2022/09/29 09:28:32;;;;;;;0.85;0.85;;;;;;;18.08;86.01;100397.22;4971028;28;20057;-90
2022/09/29 09:31:04;;;;;;;0.40;0.40;;;;;;;18.15;85.70;100403.63;4976064;28;20415;-91
2022/09/29 09:33:51;;;;;;;0.40;0.40;;;;;;;18.06;86.30;100390.34;5011878;28;20064;-82
2022/09/29 09:37:00;;;;;;;0.75;0.75;;;;;;;18.21;85.89;100403.94;4994947;28;20065;-82
2022/09/29 09:39:32;;;;;;;1.33;1.05;;;;;;;18.33;84.86;100396.84;4988706;28;20530;-87
2022/09/29 09:41:58;;;;;;;1.30;1.10;;;;;;;18.42;83.73;100403.09;4952176;28;20071;-93
2022/09/29 09:44:37;;;;;;;2.47;1.58;;;;;;;18.17;83.66;100376.34;4975345;28;20025;-95
2022/09/29 09:47:23;;;;;;;0.90;0.90;;;;;;;18.30;84.33;100418.88;4990749;28;20142;-77
2022/09/29 09:49:51;;;;;;;1.23;1.13;;;;;;;18.20;83.98;100396.22;4992196;28;20029;-87
2022/09/29 09:52:20;;;;;;;0.70;0.70;;;;;;;18.32;83.95;100408.28;4991778;28;20083;-83
2022/09/29 09:54:48;;;;;;;0.93;0.93;;;;;;;18.35;84.19;100413.25;4980816;28;20488;-83
2022/09/29 09:57:39;;;;;;;0.85;0.75;;;;;;;18.38;84.42;100410.34;4974278;28;20042;-84
2022/09/29 10:00:14;;;;;;;0.47;0.47;;;;;;;18.29;84.87;100406.75;4989419;28;20037;-84
2022/09/29 10:02:44;;;;;;;0.88;0.88;;;;;;;18.28;85.12;100404.22;5008756;28;20038;-85
2022/09/29 10:05:25;;;;;;;0.65;0.65;;;;;;;18.13;85.94;100389.84;4985655;28;20061;-85
2022/09/29 10:07:51;;;;;;;1.45;1.23;;;;;;;18.23;86.06;100407.25;4993077;28;20034;-81
2022/09/29 10:10:18;;;;;;;0.57;0.57;;;;;;;18.26;85.07;100408.78;5008732;28;20041;-81
2022/09/29 10:12:44;;;;;;;0.93;0.88;;;;;;;18.33;85.71;100431.72;4992234;28;20046;-81
2022/09/29 10:15:23;;;;;;;0.70;0.70;;;;;;;18.33;86.19;100439.56;4977857;28;20157;-92
2022/09/29 10:17:55;;;;;;;1.38;1.27;;;;;;;18.34;86.29;100437.78;4989101;28;20097;-85
2022/09/29 10:20:33;;;;;;;0.73;0.73;;;;;;;18.30;86.00;100434.59;4970213;28;20034;-84
2022/09/29 10:23:17;;;;;;;1.02;1.00;;;;;;;18.33;86.50;100438.72;4971636;28;20035;-87
2022/09/29 10:25:56;;;;;;;1.35;1.25;;;;;;;18.33;87.28;100438.72;4988460;28;20039;-92
2022/09/29 10:28:22;;;;;;;1.08;0.98;;;;;;;18.44;87.34;100436.03;4971959;28;20018;-87
2022/09/29 10:30:47;;;;;;;1.25;1.10;;;;;;;18.51;86.98;100439.81;4954818;28;20105;-81
2022/09/29 10:33:16;;;;;;;0.70;0.70;;;;;;;18.57;87.12;100428.78;4959607;28;20038;-82
2022/09/29 10:35:41;;;;;;;0.85;0.85;;;;;;;18.73;85.92;100438.00;4974324;28;20026;-84
2022/09/29 10:38:14;;;;;;;1.33;1.23;;;;;;;18.65;85.67;100422.09;4970807;28;20036;-83
2022/09/29 10:41:03;;;;;;;0.80;0.80;;;;;;;18.80;85.55;100426.03;4973836;28;20038;-83
2022/09/29 10:43:40;;;;;;;0.75;0.75;;;;;;;18.88;85.67;100426.19;4990480;28;20074;-84
2022/09/29 10:46:26;;;;;;;12.50;11.27;;;;;;;18.85;86.02;100408.09;4975658;28;20030;-90
2022/09/29 10:49:15;;;;;;;3.35;3.15;;;;;;;19.01;85.68;100418.91;4990575;28;20034;-89
2022/09/29 10:52:04;;;;;;;1.30;0.80;;;;;;;18.94;85.88;100412.53;4984450;28;20022;-82
2022/09/29 10:54:32;;;;;;;0.40;0.40;;;;;;;18.89;86.03;100399.84;5009289;28;20041;-82
2022/09/29 10:56:57;;;;;;;1.25;1.00;;;;;;;19.04;86.07;100410.78;5009905;28;20025;-86
2022/09/29 10:59:23;;;;;;;0.88;0.80;;;;;;;19.04;84.90;100408.16;4977823;28;20040;-88
2022/09/29 11:01:50;;;;;;;1.13;1.08;;;;;;;19.04;84.89;100400.28;4973463;28;20080;-81
2022/09/29 11:04:24;;;;;;;1.08;0.98;;;;;;;19.14;85.45;100409.00;4973070;28;20416;-83
2022/09/29 11:06:50;;;;;;;0.80;0.80;;;;;;;19.24;84.99;100397.69;4973806;28;20026;-88
2022/09/29 11:09:15;;;;;;;0.93;0.93;;;;;;;19.09;85.54;100405.97;4973768;28;20019;-82
2022/09/29 11:11:47;;;;;;;1.10;0.95;;;;;;;19.06;85.28;100394.91;4993160;28;20152;-86
2022/09/29 11:14:25;;;;;;;1.50;0.98;;;;;;;19.17;84.84;100414.00;4989822;28;20038;-83
2022/09/29 11:16:56;;;;;;;0.85;0.50;;;;;;;19.07;85.39;100392.13;4973275;28;20061;-80
2022/09/29 11:19:21;;;;;;;1.25;0.85;;;;;;;19.07;84.61;100394.75;4973109;28;20034;-88
2022/09/29 11:22:13;;;;;;;0.85;0.85;;;;;;;19.14;84.01;100401.13;4973646;28;20062;-90
2022/09/29 11:24:42;;;;;;;1.00;0.70;;;;;;;19.24;83.50;100408.19;4982107;28;20025;-91
2022/09/29 11:27:19;;;;;;;0.82;0.82;;;;;;;19.18;84.86;100414.81;4996676;28;20034;-84
2022/09/29 11:30:06;;;;;;;0.52;0.52;;;;;;;19.15;85.05;100425.56;4989606;28;20927;-79
2022/09/29 11:32:37;;;;;;;0.93;0.93;;;;;;;19.05;85.66;100404.56;4991167;28;20108;-79
2022/09/29 11:35:16;;;;;;;0.98;0.90;;;;;;;19.16;84.73;100414.94;4989213;28;20056;-88
2022/09/29 11:38:18;;;;;;;0.70;0.70;;;;;;;19.19;84.80;100422.53;4989829;28;20503;-82
2022/09/29 11:40:44;;;;;;;;;;;;;;;19.18;84.48;100418.28;4988713;28;20077;-80
2022/09/29 11:43:27;;;;;;;0.40;0.40;;;;;;;19.17;85.07;100418.38;4981435;28;20387;-84
2022/09/29 11:46:25;;;;;;;0.38;0.38;;;;;;;19.14;85.06;100416.88;4989808;28;20022;-85
2022/09/29 11:48:53;;;;;;;0.73;0.73;;;;;;;19.11;85.66;100418.94;4967526;28;20050;-86
2022/09/29 11:51:49;;;;;;;0.85;0.85;;;;;;;19.03;85.90;100414.34;4974577;28;20026;-85
2022/09/29 11:54:33;;;;;;;1.15;1.05;;;;;;;19.09;85.59;100402.50;4969597;28;20030;-84
2022/09/29 11:57:19;;;;;;;0.70;0.70;;;;;;;19.24;85.25;100405.56;4985181;28;20030;-83
2022/09/29 12:00:06;;;;;;;1.50;0.88;;;;;;;19.22;85.69;100397.00;4988237;28;20038;-85
2022/09/29 12:03:16;;;;;;;0.80;0.80;;;;;;;19.30;85.77;100402.41;4983736;28;20030;-85
2022/09/29 12:06:03;;;;;;;3.03;1.50;;;;;;;19.37;84.95;100416.63;4973008;28;20448;-83
2022/09/29 12:09:07;;;;;;;0.88;0.88;;;;;;;19.34;85.14;100409.03;4988530;28;20030;-81
2022/09/29 12:11:44;;;;;;;1.00;0.80;;;;;;;19.37;83.74;100406.13;4975489;28;20046;-85
2022/09/29 12:14:28;;;;;;;0.70;0.70;;;;;;;19.49;82.15;100400.63;4988213;28;20508;-84
2022/09/29 12:16:56;;;;;;;1.52;1.13;;;;;;;19.40;82.76;100395.38;4997090;28;20038;-79
2022/09/29 12:19:24;;;;;;;0.95;0.77;;;;;;;19.40;83.70;100400.63;4972020;28;20027;-86
2022/09/29 12:21:50;;;;;;;0.98;0.90;;;;;;;19.41;83.04;100400.47;4970403;28;20041;-85
2022/09/29 12:24:39;;;;;;;1.23;1.13;;;;;;;19.48;83.77;100398.97;4970984;28;20032;-92
2022/09/29 12:27:31;;;;;;;0.70;0.70;;;;;;;19.58;84.15;100392.94;4972775;28;20102;-84
2022/09/29 12:30:14;;;;;;;1.55;0.70;;;;;;;19.48;84.16;100385.03;4983742;28;20030;-84
2022/09/29 12:32:58;;;;;;;0.98;0.95;;;;;;;19.56;84.06;100395.66;4984722;28;20030;-85
2022/09/29 12:35:59;;;;;;;1.00;0.90;;;;;;;19.59;83.11;100402.47;4991222;28;20089;-82
2022/09/29 12:38:35;;;;;;;0.73;0.70;;;;;;;19.52;83.35;100385.56;4991038;28;20082;-89
2022/09/29 12:41:31;;;;;;;0.77;0.70;;;;;;;19.62;84.18;100389.06;4973359;28;20038;-86
2022/09/29 12:44:15;;;;;;;0.55;0.55;;;;;;;19.67;84.28;100390.31;4980488;28;20073;-85
2022/09/29 12:46:45;;;;;;;0.98;0.85;;;;;;;19.69;83.58;100401.47;4978979;28;20040;-87
2022/09/29 12:49:37;;;;;;;1.35;0.95;;;;;;;19.77;83.65;100412.13;4959820;28;20037;-85
2022/09/29 12:52:04;;;;;;;0.57;0.52;;;;;;;19.45;81.61;100382.66;4993994;28;20031;-83
2022/09/29 12:54:40;;;;;;;1.23;1.13;;;;;;;19.64;81.27;100389.72;4972465;28;20057;-88
2022/09/29 12:57:14;;;;;;;0.60;0.60;;;;;;;19.65;82.00;100381.72;4990094;28;20022;-89
2022/09/29 12:59:42;;;;;;;0.80;0.80;;;;;;;19.75;82.14;100408.78;4989188;28;20035;-80
2022/09/29 13:02:33;;;;;;;1.42;1.33;;;;;;;19.89;82.54;100409.34;4996559;28;20495;-80
2022/09/29 13:05:11;;;;;;;0.52;0.52;;;;;;;19.85;82.84;100408.78;5006592;28;20523;-84
2022/09/29 13:07:41;;;;;;;0.95;0.95;;;;;;;19.86;81.10;100399.97;5012129;28;20030;-76
2022/09/29 13:10:15;;;;;;;0.77;0.75;;;;;;;19.90;80.50;100400.50;4974705;28;20056;-81
2022/09/29 13:13:06;;;;;;;0.68;0.65;;;;;;;19.94;79.58;100401.84;4993028;28;20491;-81
2022/09/29 13:15:34;;;;;;;0.65;0.50;;;;;;;19.90;80.62;100400.50;4992219;28;20089;-80
2022/09/29 13:18:36;;;;;;;0.77;0.77;;;;;;;19.90;81.86;100403.13;4992202;28;20042;-80
2022/09/29 13:21:02;;;;;;;0.88;0.60;;;;;;;19.71;80.59;100386.41;4993612;28;20038;-81
2022/09/29 13:24:04;;;;;;;0.57;0.57;;;;;;;19.66;80.90;100388.63;4993333;28;20027;-81
2022/09/29 13:26:38;;;;;;;0.60;0.60;;;;;;;19.70;80.09;100369.03;4978004;28;20034;-84
2022/09/29 13:29:24;;;;;;;0.70;0.70;;;;;;;19.82;81.28;100387.25;4988742;28;20512;-83
2022/09/29 13:31:50;;;;;;;0.93;0.90;;;;;;;19.87;81.93;100385.03;4974884;28;20038;-82
2022/09/29 13:34:36;;;;;;;0.30;0.30;;;;;;;19.85;82.50;100398.28;4976276;28;20026;-83
2022/09/29 13:37:17;;;;;;;0.50;0.50;;;;;;;19.85;82.49;100400.06;4992670;28;20061;-84
2022/09/29 13:40:00;;;;;;;0.60;0.60;;;;;;;19.80;82.23;100389.19;4974684;28;20077;-84
2022/09/29 13:42:40;;;;;;;1.00;0.85;;;;;;;19.87;82.48;100399.00;4977402;28;20038;-93
2022/09/29 13:45:23;;;;;;;1.15;1.05;;;;;;;19.92;80.62;100402.00;4964923;28;20049;-85
2022/09/29 13:48:00;;;;;;;1.25;0.63;;;;;;;19.92;80.40;100403.81;4991125;28;20084;-85
2022/09/29 13:50:47;;;;;;;0.73;0.70;;;;;;;19.98;80.10;100398.00;4960885;28;20435;-85
2022/09/29 13:53:29;;;;;;;0.45;0.45;;;;;;;20.00;80.38;100401.31;4977413;28;20065;-83
2022/09/29 13:56:01;;;;;;;1.35;1.00;;;;;;;19.99;80.42;100399.66;5002702;28;20040;-87
2022/09/29 13:58:32;;;;;;;0.67;0.60;;;;;;;19.91;80.09;100391.66;5006135;28;20049;-83
2022/09/29 14:00:59;;;;;;;0.40;0.40;;;;;;;20.00;79.29;100396.06;4971676;28;20054;-82
2022/09/29 14:03:32;;;;;;;1.02;0.75;;;;;;;20.06;77.91;100400.75;4968173;28;20086;-82
2022/09/29 14:06:08;;;;;;;0.70;0.60;;;;;;;20.15;78.43;100410.38;4962932;28;20407;-85
2022/09/29 14:08:43;;;;;;;1.17;1.08;;;;;;;19.99;79.65;100397.03;4974060;28;20034;-86
2022/09/29 14:11:15;;;;;;;0.75;0.75;;;;;;;20.11;80.74;100409.03;4974650;28;20053;-85
2022/09/29 14:13:51;;;;;;;;;;;;;;;20.13;80.75;100407.06;4975572;28;20602;-85
2022/09/29 14:16:19;;;;;;;0.77;0.70;;;;;;;19.91;81.51;100402.16;5001786;28;19948;-79
